sensor_id;sensor_type;location;lat;lon;timestamp;pressure;altitude;pressure_sealevel;temperature;humidity
56038;BME280;41907;47.848;9.000;2023-08-06T00:00:35;95185.66;;;13.66;100.00
56038;BME280;41907;47.848;9.000;2023-08-06T00:03:00;95182.88;;;13.62;100.00
56038;BME280;41907;47.848;9.000;2023-08-06T00:05:26;95173.53;;;13.56;100.00
56038;BME280;41907;47.848;9.000;2023-08-06T00:07:51;95177.31;;;13.55;100.00
56038;BME280;41907;47.848;9.000;2023-08-06T00:10:17;95178.56;;;13.58;100.00
56038;BME280;41907;47.848;9.000;2023-08-06T00:12:43;95177.22;;;13.52;100.00
56038;BME280;41907;47.848;9.000;2023-08-06T00:15:09;95174.78;;;13.47;100.00
56038;BME280;41907;47.848;9.000;2023-08-06T00:17:35;95169.75;;;13.45;100.00
56038;BME280;41907;47.848;9.000;2023-08-06T00:20:01;95178.00;;;13.40;100.00
56038;BME280;41907;47.848;9.000;2023-08-06T00:22:32;95179.69;;;13.45;100.00
56038;BME280;41907;47.848;9.000;2023-08-06T00:24:57;95179.94;;;13.39;100.00
56038;BME280;41907;47.848;9.000;2023-08-06T00:27:23;95162.19;;;13.35;100.00
56038;BME280;41907;47.848;9.000;2023-08-06T00:29:48;95158.63;;;13.31;100.00
56038;BME280;41907;47.848;9.000;2023-08-06T00:32:14;95164.88;;;13.23;100.00
56038;BME280;41907;47.848;9.000;2023-08-06T00:34:39;95165.31;;;13.13;100.00
56038;BME280;41907;47.848;9.000;2023-08-06T00:37:05;95163.22;;;13.06;100.00
56038;BME280;41907;47.848;9.000;2023-08-06T00:39:30;95168.34;;;12.87;100.00
56038;BME280;41907;47.848;9.000;2023-08-06T00:41:55;95162.44;;;12.93;100.00
56038;BME280;41907;47.848;9.000;2023-08-06T00:44:21;95156.75;;;12.95;100.00
56038;BME280;41907;47.848;9.000;2023-08-06T00:46:46;95157.19;;;12.97;100.00
56038;BME280;41907;47.848;9.000;2023-08-06T00:49:12;95169.69;;;12.93;100.00
56038;BME280;41907;47.848;9.000;2023-08-06T00:51:37;95159.75;;;12.93;100.00
56038;BME280;41907;47.848;9.000;2023-08-06T00:54:03;95156.75;;;12.95;100.00
56038;BME280;41907;47.848;9.000;2023-08-06T00:56:28;95144.06;;;12.92;100.00
56038;BME280;41907;47.848;9.000;2023-08-06T00:58:54;95135.66;;;12.93;100.00
56038;BME280;41907;47.848;9.000;2023-08-06T01:01:20;95146.72;;;12.92;100.00
56038;BME280;41907;47.848;9.000;2023-08-06T01:03:46;95139.25;;;12.85;100.00
56038;BME280;41907;47.848;9.000;2023-08-06T01:06:11;95137.91;;;12.91;100.00
56038;BME280;41907;47.848;9.000;2023-08-06T01:08:48;95149.81;;;12.94;100.00
56038;BME280;41907;47.848;9.000;2023-08-06T01:11:38;95142.91;;;12.93;100.00
56038;BME280;41907;47.848;9.000;2023-08-06T01:16:38;95119.41;;;12.62;100.00
56038;BME280;41907;47.848;9.000;2023-08-06T01:19:05;95129.00;;;12.63;100.00
56038;BME280;41907;47.848;9.000;2023-08-06T01:21:30;95122.97;;;12.66;100.00
56038;BME280;41907;47.848;9.000;2023-08-06T01:23:55;95113.16;;;12.70;100.00
56038;BME280;41907;47.848;9.000;2023-08-06T01:29:45;95114.28;;;12.69;100.00
56038;BME280;41907;47.848;9.000;2023-08-06T01:32:14;95117.28;;;12.67;100.00
56038;BME280;41907;47.848;9.000;2023-08-06T01:34:41;95107.59;;;12.63;100.00
56038;BME280;41907;47.848;9.000;2023-08-06T01:37:08;95107.06;;;12.45;100.00
56038;BME280;41907;47.848;9.000;2023-08-06T01:39:34;95099.91;;;12.61;100.00
56038;BME280;41907;47.848;9.000;2023-08-06T01:42:00;95100.13;;;12.68;100.00
56038;BME280;41907;47.848;9.000;2023-08-06T01:44:25;95095.44;;;12.65;100.00
56038;BME280;41907;47.848;9.000;2023-08-06T01:46:50;95102.59;;;12.61;100.00
56038;BME280;41907;47.848;9.000;2023-08-06T01:49:16;95099.34;;;12.56;100.00
56038;BME280;41907;47.848;9.000;2023-08-06T01:51:41;95093.22;;;12.43;100.00
56038;BME280;41907;47.848;9.000;2023-08-06T01:54:06;95102.13;;;12.47;100.00
56038;BME280;41907;47.848;9.000;2023-08-06T01:56:32;95106.38;;;12.48;100.00
56038;BME280;41907;47.848;9.000;2023-08-06T01:58:57;95117.41;;;12.47;100.00
56038;BME280;41907;47.848;9.000;2023-08-06T02:01:23;95105.38;;;12.53;100.00
56038;BME280;41907;47.848;9.000;2023-08-06T02:03:48;95104.03;;;12.59;100.00
56038;BME280;41907;47.848;9.000;2023-08-06T02:06:13;95107.94;;;12.61;100.00
56038;BME280;41907;47.848;9.000;2023-08-06T02:08:39;95106.25;;;12.69;100.00
56038;BME280;41907;47.848;9.000;2023-08-06T02:11:05;95094.56;;;12.74;100.00
56038;BME280;41907;47.848;9.000;2023-08-06T02:13:30;95097.91;;;12.83;100.00
56038;BME280;41907;47.848;9.000;2023-08-06T02:15:55;95108.34;;;12.88;100.00
56038;BME280;41907;47.848;9.000;2023-08-06T02:18:21;95101.31;;;12.95;100.00
56038;BME280;41907;47.848;9.000;2023-08-06T02:20:56;95103.78;;;12.88;100.00
56038;BME280;41907;47.848;9.000;2023-08-06T02:23:25;95093.84;;;13.01;100.00
56038;BME280;41907;47.848;9.000;2023-08-06T02:26:01;95088.38;;;13.10;100.00
56038;BME280;41907;47.848;9.000;2023-08-06T02:28:28;95085.56;;;13.18;100.00
56038;BME280;41907;47.848;9.000;2023-08-06T02:30:53;95078.41;;;13.22;100.00
56038;BME280;41907;47.848;9.000;2023-08-06T02:33:19;95078.31;;;13.19;100.00
56038;BME280;41907;47.848;9.000;2023-08-06T02:35:44;95085.25;;;13.20;100.00
56038;BME280;41907;47.848;9.000;2023-08-06T02:38:09;95074.41;;;13.16;100.00
56038;BME280;41907;47.848;9.000;2023-08-06T02:40:35;95071.53;;;13.09;100.00
56038;BME280;41907;47.848;9.000;2023-08-06T02:43:00;95064.25;;;13.10;100.00
56038;BME280;41907;47.848;9.000;2023-08-06T02:45:25;95073.75;;;13.07;100.00
56038;BME280;41907;47.848;9.000;2023-08-06T02:47:51;95070.75;;;13.09;100.00
56038;BME280;41907;47.848;9.000;2023-08-06T02:50:16;95069.31;;;12.99;100.00
56038;BME280;41907;47.848;9.000;2023-08-06T02:52:42;95064.94;;;13.07;100.00
56038;BME280;41907;47.848;9.000;2023-08-06T02:55:08;95064.34;;;13.13;100.00
56038;BME280;41907;47.848;9.000;2023-08-06T02:57:33;95061.66;;;13.13;100.00
56038;BME280;41907;47.848;9.000;2023-08-06T02:59:58;95063.94;;;13.11;100.00
56038;BME280;41907;47.848;9.000;2023-08-06T03:02:24;95058.13;;;13.09;100.00
56038;BME280;41907;47.848;9.000;2023-08-06T03:04:49;95052.13;;;13.00;100.00
56038;BME280;41907;47.848;9.000;2023-08-06T03:07:14;95041.88;;;13.02;100.00
56038;BME280;41907;47.848;9.000;2023-08-06T03:09:40;95045.34;;;12.90;100.00
56038;BME280;41907;47.848;9.000;2023-08-06T03:12:05;95040.66;;;12.87;100.00
56038;BME280;41907;47.848;9.000;2023-08-06T03:14:31;95044.00;;;12.84;100.00
56038;BME280;41907;47.848;9.000;2023-08-06T03:16:56;95045.91;;;12.84;100.00
56038;BME280;41907;47.848;9.000;2023-08-06T03:19:22;95041.59;;;12.79;100.00
56038;BME280;41907;47.848;9.000;2023-08-06T03:21:47;95047.13;;;12.86;100.00
56038;BME280;41907;47.848;9.000;2023-08-06T03:24:13;95047.59;;;12.88;100.00
56038;BME280;41907;47.848;9.000;2023-08-06T03:26:39;95051.06;;;12.77;100.00
56038;BME280;41907;47.848;9.000;2023-08-06T03:29:04;95045.50;;;12.82;100.00
56038;BME280;41907;47.848;9.000;2023-08-06T03:31:30;95055.38;;;12.93;100.00
56038;BME280;41907;47.848;9.000;2023-08-06T03:33:55;95051.69;;;12.98;100.00
56038;BME280;41907;47.848;9.000;2023-08-06T03:36:20;95049.13;;;13.01;100.00
56038;BME280;41907;47.848;9.000;2023-08-06T03:38:46;95047.44;;;13.09;100.00
56038;BME280;41907;47.848;9.000;2023-08-06T03:41:11;95058.56;;;13.11;100.00
56038;BME280;41907;47.848;9.000;2023-08-06T03:43:36;95063.72;;;13.16;100.00
56038;BME280;41907;47.848;9.000;2023-08-06T03:46:02;95065.72;;;13.19;100.00
56038;BME280;41907;47.848;9.000;2023-08-06T03:48:27;95060.25;;;13.16;100.00
56038;BME280;41907;47.848;9.000;2023-08-06T03:50:52;95060.38;;;13.19;100.00
56038;BME280;41907;47.848;9.000;2023-08-06T03:53:18;95067.28;;;13.20;100.00
56038;BME280;41907;47.848;9.000;2023-08-06T03:55:43;95065.91;;;13.26;100.00
56038;BME280;41907;47.848;9.000;2023-08-06T03:58:08;95064.88;;;13.31;100.00
56038;BME280;41907;47.848;9.000;2023-08-06T04:00:34;95058.00;;;13.30;100.00
56038;BME280;41907;47.848;9.000;2023-08-06T04:02:59;95068.16;;;13.24;100.00
56038;BME280;41907;47.848;9.000;2023-08-06T04:05:24;95063.75;;;13.32;100.00
56038;BME280;41907;47.848;9.000;2023-08-06T04:07:50;95070.34;;;13.34;100.00
56038;BME280;41907;47.848;9.000;2023-08-06T04:10:15;95071.56;;;13.37;100.00
56038;BME280;41907;47.848;9.000;2023-08-06T04:12:40;95071.13;;;13.35;100.00
56038;BME280;41907;47.848;9.000;2023-08-06T04:15:06;95072.25;;;13.34;100.00
56038;BME280;41907;47.848;9.000;2023-08-06T04:17:32;95082.16;;;13.33;100.00
56038;BME280;41907;47.848;9.000;2023-08-06T04:19:57;95078.28;;;13.31;100.00
56038;BME280;41907;47.848;9.000;2023-08-06T04:22:24;95079.16;;;13.35;100.00
56038;BME280;41907;47.848;9.000;2023-08-06T04:24:49;95077.78;;;13.41;100.00
56038;BME280;41907;47.848;9.000;2023-08-06T04:27:16;95083.59;;;13.43;100.00
56038;BME280;41907;47.848;9.000;2023-08-06T04:29:42;95082.59;;;13.48;100.00
56038;BME280;41907;47.848;9.000;2023-08-06T04:32:09;95088.91;;;13.55;100.00
56038;BME280;41907;47.848;9.000;2023-08-06T04:34:35;95079.19;;;13.51;100.00
56038;BME280;41907;47.848;9.000;2023-08-06T04:37:02;95077.75;;;13.53;100.00
56038;BME280;41907;47.848;9.000;2023-08-06T04:39:28;95084.13;;;13.49;100.00
56038;BME280;41907;47.848;9.000;2023-08-06T04:41:57;95096.75;;;13.48;100.00
56038;BME280;41907;47.848;9.000;2023-08-06T04:44:23;95082.91;;;13.46;100.00
56038;BME280;41907;47.848;9.000;2023-08-06T04:46:48;95088.72;;;13.48;100.00
56038;BME280;41907;47.848;9.000;2023-08-06T04:49:14;95087.34;;;13.54;100.00
56038;BME280;41907;47.848;9.000;2023-08-06T04:51:39;95075.06;;;13.53;100.00
56038;BME280;41907;47.848;9.000;2023-08-06T04:54:04;95073.94;;;13.54;100.00
56038;BME280;41907;47.848;9.000;2023-08-06T04:56:30;95083.28;;;13.60;100.00
56038;BME280;41907;47.848;9.000;2023-08-06T04:58:55;95069.13;;;13.60;100.00
56038;BME280;41907;47.848;9.000;2023-08-06T05:01:20;95078.97;;;13.56;100.00
56038;BME280;41907;47.848;9.000;2023-08-06T05:03:47;95073.16;;;13.54;100.00
56038;BME280;41907;47.848;9.000;2023-08-06T05:06:12;95083.28;;;13.60;100.00
56038;BME280;41907;47.848;9.000;2023-08-06T05:08:38;95091.09;;;13.65;100.00
56038;BME280;41907;47.848;9.000;2023-08-06T05:11:03;95091.88;;;13.66;100.00
56038;BME280;41907;47.848;9.000;2023-08-06T05:13:28;95088.41;;;13.65;100.00
56038;BME280;41907;47.848;9.000;2023-08-06T05:15:54;95096.78;;;13.64;100.00
56038;BME280;41907;47.848;9.000;2023-08-06T05:18:19;95093.81;;;13.53;100.00
56038;BME280;41907;47.848;9.000;2023-08-06T05:20:45;95095.22;;;13.35;100.00
56038;BME280;41907;47.848;9.000;2023-08-06T05:23:10;95088.31;;;13.34;100.00
56038;BME280;41907;47.848;9.000;2023-08-06T05:25:36;95098.66;;;13.48;100.00
56038;BME280;41907;47.848;9.000;2023-08-06T05:28:02;95100.56;;;13.47;100.00
56038;BME280;41907;47.848;9.000;2023-08-06T05:30:28;95107.22;;;13.53;100.00
56038;BME280;41907;47.848;9.000;2023-08-06T05:32:53;95112.69;;;13.57;100.00
56038;BME280;41907;47.848;9.000;2023-08-06T05:35:20;95106.78;;;13.51;100.00
56038;BME280;41907;47.848;9.000;2023-08-06T05:37:46;95119.75;;;13.49;100.00
56038;BME280;41907;47.848;9.000;2023-08-06T05:40:11;95125.84;;;13.50;100.00
56038;BME280;41907;47.848;9.000;2023-08-06T05:42:36;95124.50;;;13.56;100.00
56038;BME280;41907;47.848;9.000;2023-08-06T05:45:02;95124.97;;;13.58;100.00
56038;BME280;41907;47.848;9.000;2023-08-06T05:47:27;95128.75;;;13.57;100.00
56038;BME280;41907;47.848;9.000;2023-08-06T05:49:53;95131.97;;;13.62;100.00
56038;BME280;41907;47.848;9.000;2023-08-06T05:52:18;95129.75;;;13.52;100.00
56038;BME280;41907;47.848;9.000;2023-08-06T05:54:43;95131.91;;;13.74;100.00
56038;BME280;41907;47.848;9.000;2023-08-06T05:57:09;95129.25;;;14.34;100.00
56038;BME280;41907;47.848;9.000;2023-08-06T05:59:34;95127.63;;;15.27;100.00
56038;BME280;41907;47.848;9.000;2023-08-06T06:01:59;95137.91;;;18.80;93.90
56038;BME280;41907;47.848;9.000;2023-08-06T06:04:25;95138.50;;;19.68;83.44
56038;BME280;41907;47.848;9.000;2023-08-06T06:06:50;95138.00;;;18.09;87.06
56038;BME280;41907;47.848;9.000;2023-08-06T06:09:16;95134.63;;;19.08;84.40
56038;BME280;41907;47.848;9.000;2023-08-06T06:11:41;95123.44;;;21.95;69.09
56038;BME280;41907;47.848;9.000;2023-08-06T06:14:06;95132.09;;;21.65;66.32
56038;BME280;41907;47.848;9.000;2023-08-06T06:16:32;95131.03;;;20.56;71.24
56038;BME280;41907;47.848;9.000;2023-08-06T06:18:57;95142.59;;;18.86;79.19
56038;BME280;41907;47.848;9.000;2023-08-06T06:21:24;95138.09;;;17.83;84.01
56038;BME280;41907;47.848;9.000;2023-08-06T06:23:49;95137.03;;;17.61;88.05
56038;BME280;41907;47.848;9.000;2023-08-06T06:26:17;95138.69;;;17.13;89.30
56038;BME280;41907;47.848;9.000;2023-08-06T06:28:42;95137.00;;;16.56;94.62
56038;BME280;41907;47.848;9.000;2023-08-06T06:31:07;95140.28;;;16.23;97.98
56038;BME280;41907;47.848;9.000;2023-08-06T06:33:33;95152.91;;;15.99;98.10
56038;BME280;41907;47.848;9.000;2023-08-06T06:35:58;95143.97;;;15.95;100.00
56038;BME280;41907;47.848;9.000;2023-08-06T06:38:23;95147.06;;;15.94;99.82
56038;BME280;41907;47.848;9.000;2023-08-06T06:40:58;95146.97;;;15.90;98.42
56038;BME280;41907;47.848;9.000;2023-08-06T06:43:24;95144.41;;;15.59;100.00
56038;BME280;41907;47.848;9.000;2023-08-06T06:45:53;95153.19;;;15.21;100.00
56038;BME280;41907;47.848;9.000;2023-08-06T06:48:21;95147.41;;;15.03;100.00
56038;BME280;41907;47.848;9.000;2023-08-06T06:50:47;95153.84;;;14.83;100.00
56038;BME280;41907;47.848;9.000;2023-08-06T06:53:13;95161.31;;;14.58;100.00
56038;BME280;41907;47.848;9.000;2023-08-06T06:55:39;95166.69;;;14.42;100.00
56038;BME280;41907;47.848;9.000;2023-08-06T06:58:04;95166.19;;;14.25;100.00
56038;BME280;41907;47.848;9.000;2023-08-06T07:00:29;95159.84;;;14.17;100.00
56038;BME280;41907;47.848;9.000;2023-08-06T07:02:55;95165.81;;;14.10;100.00
56038;BME280;41907;47.848;9.000;2023-08-06T07:05:20;95170.28;;;14.06;100.00
56038;BME280;41907;47.848;9.000;2023-08-06T07:07:45;95173.69;;;14.03;100.00
56038;BME280;41907;47.848;9.000;2023-08-06T07:10:11;95177.53;;;13.90;100.00
56038;BME280;41907;47.848;9.000;2023-08-06T07:12:36;95169.97;;;13.80;100.00
56038;BME280;41907;47.848;9.000;2023-08-06T07:15:04;95186.00;;;13.64;100.00
56038;BME280;41907;47.848;9.000;2023-08-06T07:17:30;95183.78;;;13.54;100.00
56038;BME280;41907;47.848;9.000;2023-08-06T07:19:55;95181.91;;;13.43;100.00
56038;BME280;41907;47.848;9.000;2023-08-06T07:22:20;95188.53;;;13.33;100.00
56038;BME280;41907;47.848;9.000;2023-08-06T07:24:46;95196.22;;;13.34;100.00
56038;BME280;41907;47.848;9.000;2023-08-06T07:27:11;95200.34;;;13.32;100.00
56038;BME280;41907;47.848;9.000;2023-08-06T07:29:36;95209.16;;;13.32;100.00
56038;BME280;41907;47.848;9.000;2023-08-06T07:32:02;95214.84;;;13.31;100.00
56038;BME280;41907;47.848;9.000;2023-08-06T07:34:27;95216.09;;;13.21;100.00
56038;BME280;41907;47.848;9.000;2023-08-06T07:36:53;95224.25;;;13.25;100.00
56038;BME280;41907;47.848;9.000;2023-08-06T07:39:18;95210.53;;;13.14;100.00
56038;BME280;41907;47.848;9.000;2023-08-06T07:41:43;95219.09;;;13.32;100.00
56038;BME280;41907;47.848;9.000;2023-08-06T07:44:11;95221.75;;;13.56;100.00
56038;BME280;41907;47.848;9.000;2023-08-06T07:46:36;95219.53;;;13.58;100.00
56038;BME280;41907;47.848;9.000;2023-08-06T07:49:01;95211.09;;;13.72;100.00
56038;BME280;41907;47.848;9.000;2023-08-06T07:51:27;95213.56;;;13.77;100.00
56038;BME280;41907;47.848;9.000;2023-08-06T07:53:53;95208.72;;;13.83;100.00
56038;BME280;41907;47.848;9.000;2023-08-06T07:56:18;95209.31;;;13.76;100.00
56038;BME280;41907;47.848;9.000;2023-08-06T07:58:43;95220.16;;;13.67;100.00
56038;BME280;41907;47.848;9.000;2023-08-06T08:01:09;95211.56;;;13.62;100.00
56038;BME280;41907;47.848;9.000;2023-08-06T08:03:34;95215.69;;;13.59;100.00
56038;BME280;41907;47.848;9.000;2023-08-06T08:06:00;95208.09;;;13.61;100.00
56038;BME280;41907;47.848;9.000;2023-08-06T08:08:25;95210.34;;;13.59;100.00
56038;BME280;41907;47.848;9.000;2023-08-06T08:10:50;95214.25;;;13.50;100.00
56038;BME280;41907;47.848;9.000;2023-08-06T08:13:16;95209.81;;;13.54;100.00
56038;BME280;41907;47.848;9.000;2023-08-06T08:15:41;95206.34;;;13.53;100.00
56038;BME280;41907;47.848;9.000;2023-08-06T08:18:07;95213.72;;;13.56;100.00
56038;BME280;41907;47.848;9.000;2023-08-06T08:20:32;95208.81;;;13.58;100.00
56038;BME280;41907;47.848;9.000;2023-08-06T08:23:00;95202.69;;;13.46;100.00
56038;BME280;41907;47.848;9.000;2023-08-06T08:25:26;95208.81;;;13.46;100.00
56038;BME280;41907;47.848;9.000;2023-08-06T08:27:52;95201.44;;;13.55;100.00
56038;BME280;41907;47.848;9.000;2023-08-06T08:30:17;95208.34;;;13.56;100.00
56038;BME280;41907;47.848;9.000;2023-08-06T08:32:43;95218.22;;;13.80;100.00
56038;BME280;41907;47.848;9.000;2023-08-06T08:35:08;95211.66;;;13.77;100.00
56038;BME280;41907;47.848;9.000;2023-08-06T08:37:33;95219.00;;;13.81;100.00
56038;BME280;41907;47.848;9.000;2023-08-06T08:39:59;95218.50;;;13.63;100.00
56038;BME280;41907;47.848;9.000;2023-08-06T08:42:25;95211.88;;;13.72;100.00
56038;BME280;41907;47.848;9.000;2023-08-06T08:44:52;95228.09;;;13.64;100.00
56038;BME280;41907;47.848;9.000;2023-08-06T08:47:18;95217.63;;;13.59;100.00
56038;BME280;41907;47.848;9.000;2023-08-06T08:49:44;95216.41;;;13.56;100.00
56038;BME280;41907;47.848;9.000;2023-08-06T08:52:14;95220.72;;;13.61;100.00
56038;BME280;41907;47.848;9.000;2023-08-06T08:54:40;95224.75;;;13.55;100.00
56038;BME280;41907;47.848;9.000;2023-08-06T08:57:06;95234.69;;;13.66;100.00
56038;BME280;41907;47.848;9.000;2023-08-06T08:59:33;95234.22;;;13.64;100.00
56038;BME280;41907;47.848;9.000;2023-08-06T09:02:00;95231.56;;;13.64;100.00
56038;BME280;41907;47.848;9.000;2023-08-06T09:04:28;95234.22;;;13.64;100.00
56038;BME280;41907;47.848;9.000;2023-08-06T09:06:56;95240.78;;;13.79;100.00
56038;BME280;41907;47.848;9.000;2023-08-06T09:09:29;95240.22;;;13.86;100.00
56038;BME280;41907;47.848;9.000;2023-08-06T09:12:00;95245.03;;;14.08;100.00
56038;BME280;41907;47.848;9.000;2023-08-06T09:14:26;95243.78;;;14.18;100.00
56038;BME280;41907;47.848;9.000;2023-08-06T09:16:52;95257.47;;;14.40;100.00
56038;BME280;41907;47.848;9.000;2023-08-06T09:19:17;95248.06;;;14.62;100.00
56038;BME280;41907;47.848;9.000;2023-08-06T09:21:43;95251.03;;;15.04;100.00
56038;BME280;41907;47.848;9.000;2023-08-06T09:24:10;95245.19;;;15.65;100.00
56038;BME280;41907;47.848;9.000;2023-08-06T09:26:37;95244.88;;;15.70;100.00
56038;BME280;41907;47.848;9.000;2023-08-06T09:29:05;95241.97;;;15.44;100.00
56038;BME280;41907;47.848;9.000;2023-08-06T09:31:44;95254.22;;;15.25;100.00
56038;BME280;41907;47.848;9.000;2023-08-06T09:34:12;95238.84;;;15.57;100.00
56038;BME280;41907;47.848;9.000;2023-08-06T09:36:41;95235.84;;;16.17;100.00
56038;BME280;41907;47.848;9.000;2023-08-06T09:39:17;95245.63;;;16.06;99.80
56038;BME280;41907;47.848;9.000;2023-08-06T09:41:44;95244.91;;;16.28;97.42
56038;BME280;41907;47.848;9.000;2023-08-06T09:44:19;95249.38;;;16.82;96.76
56038;BME280;41907;47.848;9.000;2023-08-06T09:46:54;95253.69;;;17.09;96.17
56038;BME280;41907;47.848;9.000;2023-08-06T09:49:21;95252.97;;;17.35;93.45
56038;BME280;41907;47.848;9.000;2023-08-06T09:51:47;95254.91;;;17.11;94.04
56038;BME280;41907;47.848;9.000;2023-08-06T09:54:16;95255.19;;;17.56;92.97
56038;BME280;41907;47.848;9.000;2023-08-06T09:56:42;95255.72;;;17.91;90.54
56038;BME280;41907;47.848;9.000;2023-08-06T09:59:08;95260.91;;;17.51;91.10
56038;BME280;41907;47.848;9.000;2023-08-06T10:01:35;95258.50;;;16.96;93.35
56038;BME280;41907;47.848;9.000;2023-08-06T10:04:05;95257.88;;;16.42;95.81
56038;BME280;41907;47.848;9.000;2023-08-06T10:06:36;95276.88;;;15.75;100.00
56038;BME280;41907;47.848;9.000;2023-08-06T10:09:02;95275.94;;;15.52;100.00
56038;BME280;41907;47.848;9.000;2023-08-06T10:11:28;95278.25;;;15.18;100.00
56038;BME280;41907;47.848;9.000;2023-08-06T10:14:07;95279.44;;;15.05;100.00
56038;BME280;41907;47.848;9.000;2023-08-06T10:16:34;95283.63;;;15.18;100.00
56038;BME280;41907;47.848;9.000;2023-08-06T10:19:01;95284.78;;;15.52;100.00
56038;BME280;41907;47.848;9.000;2023-08-06T10:21:26;95275.72;;;15.76;100.00
56038;BME280;41907;47.848;9.000;2023-08-06T10:23:56;95276.06;;;15.90;100.00
56038;BME280;41907;47.848;9.000;2023-08-06T10:26:26;95279.75;;;16.02;100.00
56038;BME280;41907;47.848;9.000;2023-08-06T10:28:51;95269.69;;;16.18;100.00
56038;BME280;41907;47.848;9.000;2023-08-06T10:31:18;95277.47;;;16.42;100.00
56038;BME280;41907;47.848;9.000;2023-08-06T10:33:45;95267.47;;;17.04;100.00
56038;BME280;41907;47.848;9.000;2023-08-06T10:36:11;95268.75;;;17.36;98.70
56038;BME280;41907;47.848;9.000;2023-08-06T10:38:50;95277.91;;;18.07;95.69
56038;BME280;41907;47.848;9.000;2023-08-06T10:43:42;95277.59;;;17.82;91.10
56038;BME280;41907;47.848;9.000;2023-08-06T10:46:11;95284.91;;;17.59;91.90
56038;BME280;41907;47.848;9.000;2023-08-06T10:48:37;95274.25;;;17.17;91.70
56038;BME280;41907;47.848;9.000;2023-08-06T10:51:07;95284.72;;;16.77;91.74
56038;BME280;41907;47.848;9.000;2023-08-06T10:53:32;95279.19;;;16.50;93.84
56038;BME280;41907;47.848;9.000;2023-08-06T10:55:58;95293.47;;;16.54;94.83
56038;BME280;41907;47.848;9.000;2023-08-06T10:58:23;95277.19;;;16.47;93.45
56038;BME280;41907;47.848;9.000;2023-08-06T11:00:48;95276.63;;;16.57;96.07
56038;BME280;41907;47.848;9.000;2023-08-06T11:03:14;95292.84;;;16.80;94.96
56038;BME280;41907;47.848;9.000;2023-08-06T11:05:40;95282.78;;;16.77;91.60
56038;BME280;41907;47.848;9.000;2023-08-06T11:08:05;95282.06;;;16.61;93.16
56038;BME280;41907;47.848;9.000;2023-08-06T11:10:32;95277.66;;;16.91;93.31
56038;BME280;41907;47.848;9.000;2023-08-06T11:13:02;95282.50;;;17.05;91.37
56038;BME280;41907;47.848;9.000;2023-08-06T11:15:29;95288.69;;;16.63;91.64
56038;BME280;41907;47.848;9.000;2023-08-06T11:17:55;95288.31;;;16.84;91.52
56038;BME280;41907;47.848;9.000;2023-08-06T11:20:20;95285.44;;;17.19;90.44
56038;BME280;41907;47.848;9.000;2023-08-06T11:22:47;95288.22;;;17.72;87.64
56038;BME280;41907;47.848;9.000;2023-08-06T11:25:12;95279.88;;;18.10;85.14
56038;BME280;41907;47.848;9.000;2023-08-06T11:27:38;95278.75;;;18.45;83.68
56038;BME280;41907;47.848;9.000;2023-08-06T11:30:04;95279.06;;;18.06;83.67
56038;BME280;41907;47.848;9.000;2023-08-06T11:32:29;95292.31;;;17.89;85.60
56038;BME280;41907;47.848;9.000;2023-08-06T11:34:55;95296.66;;;17.97;85.41
56038;BME280;41907;47.848;9.000;2023-08-06T11:37:21;95299.78;;;17.99;85.57
56038;BME280;41907;47.848;9.000;2023-08-06T11:39:49;95292.78;;;17.68;85.68
56038;BME280;41907;47.848;9.000;2023-08-06T11:42:15;95299.81;;;17.76;85.53
56038;BME280;41907;47.848;9.000;2023-08-06T11:44:41;95290.91;;;17.98;82.48
56038;BME280;41907;47.848;9.000;2023-08-06T11:47:16;95298.66;;;18.03;85.26
56038;BME280;41907;47.848;9.000;2023-08-06T11:49:49;95292.34;;;18.52;81.57
56038;BME280;41907;47.848;9.000;2023-08-06T11:52:22;95297.84;;;18.59;80.58
56038;BME280;41907;47.848;9.000;2023-08-06T11:55:08;95289.84;;;18.66;79.69
56038;BME280;41907;47.848;9.000;2023-08-06T11:57:38;95306.59;;;18.19;80.41
56038;BME280;41907;47.848;9.000;2023-08-06T12:02:32;95306.22;;;17.64;83.28
56038;BME280;41907;47.848;9.000;2023-08-06T12:05:10;95309.97;;;17.60;82.88
56038;BME280;41907;47.848;9.000;2023-08-06T12:07:38;95315.75;;;17.84;83.86
56038;BME280;41907;47.848;9.000;2023-08-06T12:10:03;95307.78;;;17.42;83.59
56038;BME280;41907;47.848;9.000;2023-08-06T12:12:29;95317.31;;;17.14;86.41
56038;BME280;41907;47.848;9.000;2023-08-06T12:14:55;95318.06;;;16.91;90.58
56038;BME280;41907;47.848;9.000;2023-08-06T12:17:21;95321.53;;;16.53;91.86
56038;BME280;41907;47.848;9.000;2023-08-06T12:19:47;95312.84;;;16.41;93.12
56038;BME280;41907;47.848;9.000;2023-08-06T12:22:13;95337.75;;;16.18;95.10
56038;BME280;41907;47.848;9.000;2023-08-06T12:24:40;95342.13;;;16.07;97.85
56038;BME280;41907;47.848;9.000;2023-08-06T12:27:05;95339.44;;;15.56;99.90
56038;BME280;41907;47.848;9.000;2023-08-06T12:29:31;95334.63;;;15.50;100.00
56038;BME280;41907;47.848;9.000;2023-08-06T12:31:56;95347.75;;;15.36;100.00
56038;BME280;41907;47.848;9.000;2023-08-06T12:34:22;95340.47;;;15.36;100.00
56038;BME280;41907;47.848;9.000;2023-08-06T12:36:47;95360.81;;;15.21;100.00
56038;BME280;41907;47.848;9.000;2023-08-06T12:39:12;95355.16;;;15.11;100.00
56038;BME280;41907;47.848;9.000;2023-08-06T12:41:38;95356.22;;;15.06;100.00
56038;BME280;41907;47.848;9.000;2023-08-06T12:44:03;95361.31;;;14.96;100.00
56038;BME280;41907;47.848;9.000;2023-08-06T12:46:29;95359.41;;;14.68;100.00
56038;BME280;41907;47.848;9.000;2023-08-06T12:48:54;95372.00;;;14.52;100.00
56038;BME280;41907;47.848;9.000;2023-08-06T12:51:20;95384.97;;;14.38;100.00
56038;BME280;41907;47.848;9.000;2023-08-06T12:53:45;95383.56;;;14.28;100.00
56038;BME280;41907;47.848;9.000;2023-08-06T12:56:11;95398.19;;;14.31;100.00
56038;BME280;41907;47.848;9.000;2023-08-06T12:58:36;95402.66;;;14.27;100.00